Irene Z — WDE9821 — position and weather

sailwx.info

Track history (hours):
 
Tides and Currents Weather Stations Pressure Air Temp Water Temp Dewpoint Dewpoint Depression Visibility Wind Speed Wind Dir Waves Ship Positions

Irene Z

More information available from US FCC via Universal Licensing System and Coast Guard Vessel Documentation Center.

Last reported at 2014-Aug-01 11:33 UTC. Time now 2014-Aug-01 11:55 UTC.
Position N 29°27' W 094°55'.

Length 24 m; draft 2.5 m.

Type: Towing. MMSI: 367421680.

Date/timePositionNaut miles runAvg speedWind from/ knotsBaromVisibWave heightAir tempDewpointWater temp
2014-Aug-01 11:33N 29°27' W 094°55'3 2.8
2014-Aug-01 10:33N 29°28' W 094°58'0 0.0
2014-Aug-01 09:33N 29°28' W 094°58'0 0.0
2014-Aug-01 08:34N 29°28' W 094°58'0 0.0
2014-Aug-01 07:33N 29°28' W 094°58'0 0.0
2014-Aug-01 06:34N 29°28' W 094°58'0 0.0
2014-Aug-01 05:33N 29°28' W 094°58'0 0.0
2014-Aug-01 04:34N 29°28' W 094°58'0 0.0
2014-Aug-01 03:33N 29°28' W 094°58'0 0.0
2014-Aug-01 02:33N 29°28' W 094°58'0 0.0
2014-Aug-01 01:33N 29°28' W 094°58'0 0.0
2014-Aug-01 00:33N 29°28' W 094°58'0 0.0
2014-Jul-31 23:33N 29°28' W 094°58'0 0.0
2014-Jul-31 22:33N 29°28' W 094°58'0 0.0
2014-Jul-31 21:33N 29°28' W 094°58'0 0.0
2014-Jul-31 20:33N 29°28' W 094°58'0 0.0
2014-Jul-31 19:33N 29°28' W 094°58'0 0.0
2014-Jul-31 18:33N 29°28' W 094°58'0 0.0
2014-Jul-31 17:33N 29°28' W 094°58'0 0.0
2014-Jul-31 16:33N 29°28' W 094°58'0 0.0
2014-Jul-31 15:34N 29°28' W 094°58'0 0.0
2014-Jul-31 14:33N 29°28' W 094°58'0 0.0
2014-Jul-31 13:33N 29°28' W 094°58'0 0.0
2014-Jul-31 12:33N 29°28' W 094°58'0 0.0
2014-Jul-31 11:34N 29°28' W 094°58'0 0.0
2014-Jul-31 10:34N 29°28' W 094°58'0 0.0
2014-Jul-31 09:33N 29°28' W 094°58'0 0.0
2014-Jul-31 08:33N 29°28' W 094°58'0 0.0
2014-Jul-31 07:33N 29°28' W 094°58'0 0.0
2014-Jul-31 06:33N 29°28' W 094°58'0 0.0
2014-Jul-31 05:33N 29°28' W 094°58'0 0.0
2014-Jul-31 04:33N 29°28' W 094°58'0 0.0
2014-Jul-31 03:34N 29°28' W 094°58'0 0.0
2014-Jul-31 02:33N 29°28' W 094°58'0 0.0
2014-Jul-31 01:34N 29°28' W 094°58'0 0.0
2014-Jul-31 00:33N 29°28' W 094°58'0 0.0
2014-Jul-30 23:33N 29°28' W 094°58'0 0.0
2014-Jul-30 22:33N 29°28' W 094°58'2 1.6
2014-Jul-30 21:33N 29°28' W 094°56'4 4.2
2014-Jul-30 20:34N 29°28' W 094°51'10 0.5
2014-Jul-29 23:30N 29°30' W 094°40'0 0.0
2014-Jul-29 06:22N 29°30' W 094°40'0 0.0
2014-Jul-29 05:29N 29°30' W 094°40'0 0.0
2014-Jul-29 04:33N 29°30' W 094°40'11 0.6
2014-Jul-28 11:26N 29°27' W 094°52'3 3.7
2014-Jul-28 10:33N 29°28' W 094°56'2 2.0
2014-Jul-28 09:33N 29°28' W 094°58'0 0.0
2014-Jul-28 08:33N 29°28' W 094°58'0 0.0
2014-Jul-28 07:33N 29°28' W 094°58'0 0.0
2014-Jul-28 06:33N 29°28' W 094°58'0 0.0
2014-Jul-28 05:33N 29°28' W 094°58'0 0.0
2014-Jul-28 04:33N 29°28' W 094°58'0 0.0
2014-Jul-28 03:33N 29°28' W 094°58'0 0.0
2014-Jul-28 02:33N 29°28' W 094°58'0 0.0
2014-Jul-28 01:33N 29°28' W 094°58'2 2.4
2014-Jul-28 00:33N 29°27' W 094°55'5 4.0
2014-Jul-27 23:26N 29°28' W 094°50'  
2014-Jul-25 12:16N 29°28' W 094°54'2 3.1
2014-Jul-25 11:33N 29°28' W 094°57'1 0.8
2014-Jul-25 10:33N 29°28' W 094°58'0 0.3
2014-Jul-25 09:33N 29°28' W 094°58'0 0.0
2014-Jul-25 08:33N 29°28' W 094°58'0 0.0
2014-Jul-25 07:33N 29°28' W 094°58'0 0.0
2014-Jul-25 06:33N 29°28' W 094°58'0 0.0
2014-Jul-25 05:33N 29°28' W 094°58'0 0.0
2014-Jul-25 04:33N 29°28' W 094°58'0 0.0
2014-Jul-25 03:32N 29°28' W 094°58'0 0.0
2014-Jul-25 02:33N 29°28' W 094°58'0 0.0
2014-Jul-25 01:33N 29°28' W 094°58'0 0.0
2014-Jul-25 00:33N 29°28' W 094°58'0 0.0
2014-Jul-24 23:33N 29°28' W 094°58'0 0.0
2014-Jul-24 22:29N 29°28' W 094°58'0 0.1
2014-Jul-24 21:33N 29°28' W 094°58'3 2.6
2014-Jul-24 20:33N 29°27' W 094°55'3 3.4
2014-Jul-24 19:33N 29°28' W 094°51'  
Track history (hours):
 
Tides and Currents Weather Stations Pressure Air Temp Water Temp Dewpoint Dewpoint Depression Visibility Wind Speed Wind Dir Waves Ship Positions

Irene Z

More information available from US FCC via Universal Licensing System and Coast Guard Vessel Documentation Center.

Last reported at 2014-Aug-01 11:33 UTC. Time now 2014-Aug-01 11:55 UTC.
Position N 29°27' W 094°55'.

Length 24 m; draft 2.5 m.

Type: Towing. MMSI: 367421680.

Date/timePositionNaut miles runAvg speedWind from/ knotsBaromVisibWave heightAir tempDewpointWater temp
2014-Aug-01 11:33N 29°27' W 094°55'3 2.8
2014-Aug-01 10:33N 29°28' W 094°58'0 0.0
2014-Aug-01 09:33N 29°28' W 094°58'0 0.0
2014-Aug-01 08:34N 29°28' W 094°58'0 0.0
2014-Aug-01 07:33N 29°28' W 094°58'0 0.0
2014-Aug-01 06:34N 29°28' W 094°58'0 0.0
2014-Aug-01 05:33N 29°28' W 094°58'0 0.0
2014-Aug-01 04:34N 29°28' W 094°58'0 0.0
2014-Aug-01 03:33N 29°28' W 094°58'0 0.0
2014-Aug-01 02:33N 29°28' W 094°58'0 0.0
2014-Aug-01 01:33N 29°28' W 094°58'0 0.0
2014-Aug-01 00:33N 29°28' W 094°58'0 0.0
2014-Jul-31 23:33N 29°28' W 094°58'0 0.0
2014-Jul-31 22:33N 29°28' W 094°58'0 0.0
2014-Jul-31 21:33N 29°28' W 094°58'0 0.0
2014-Jul-31 20:33N 29°28' W 094°58'0 0.0
2014-Jul-31 19:33N 29°28' W 094°58'0 0.0
2014-Jul-31 18:33N 29°28' W 094°58'0 0.0
2014-Jul-31 17:33N 29°28' W 094°58'0 0.0
2014-Jul-31 16:33N 29°28' W 094°58'0 0.0
2014-Jul-31 15:34N 29°28' W 094°58'0 0.0
2014-Jul-31 14:33N 29°28' W 094°58'0 0.0
2014-Jul-31 13:33N 29°28' W 094°58'0 0.0
2014-Jul-31 12:33N 29°28' W 094°58'0 0.0
2014-Jul-31 11:34N 29°28' W 094°58'0 0.0
2014-Jul-31 10:34N 29°28' W 094°58'0 0.0
2014-Jul-31 09:33N 29°28' W 094°58'0 0.0
2014-Jul-31 08:33N 29°28' W 094°58'0 0.0
2014-Jul-31 07:33N 29°28' W 094°58'0 0.0
2014-Jul-31 06:33N 29°28' W 094°58'0 0.0
2014-Jul-31 05:33N 29°28' W 094°58'0 0.0
2014-Jul-31 04:33N 29°28' W 094°58'0 0.0
2014-Jul-31 03:34N 29°28' W 094°58'0 0.0
2014-Jul-31 02:33N 29°28' W 094°58'0 0.0
2014-Jul-31 01:34N 29°28' W 094°58'0 0.0
2014-Jul-31 00:33N 29°28' W 094°58'0 0.0
2014-Jul-30 23:33N 29°28' W 094°58'0 0.0
2014-Jul-30 22:33N 29°28' W 094°58'2 1.6
2014-Jul-30 21:33N 29°28' W 094°56'4 4.2
2014-Jul-30 20:34N 29°28' W 094°51'10 0.5
2014-Jul-29 23:30N 29°30' W 094°40'0 0.0
2014-Jul-29 06:22N 29°30' W 094°40'0 0.0
2014-Jul-29 05:29N 29°30' W 094°40'0 0.0
2014-Jul-29 04:33N 29°30' W 094°40'11 0.6
2014-Jul-28 11:26N 29°27' W 094°52'3 3.7
2014-Jul-28 10:33N 29°28' W 094°56'2 2.0
2014-Jul-28 09:33N 29°28' W 094°58'0 0.0
2014-Jul-28 08:33N 29°28' W 094°58'0 0.0
2014-Jul-28 07:33N 29°28' W 094°58'0 0.0
2014-Jul-28 06:33N 29°28' W 094°58'0 0.0
2014-Jul-28 05:33N 29°28' W 094°58'0 0.0
2014-Jul-28 04:33N 29°28' W 094°58'0 0.0
2014-Jul-28 03:33N 29°28' W 094°58'0 0.0
2014-Jul-28 02:33N 29°28' W 094°58'0 0.0
2014-Jul-28 01:33N 29°28' W 094°58'2 2.4
2014-Jul-28 00:33N 29°27' W 094°55'5 4.0
2014-Jul-27 23:26N 29°28' W 094°50'  
2014-Jul-25 12:16N 29°28' W 094°54'2 3.1
2014-Jul-25 11:33N 29°28' W 094°57'1 0.8
2014-Jul-25 10:33N 29°28' W 094°58'0 0.3
2014-Jul-25 09:33N 29°28' W 094°58'0 0.0
2014-Jul-25 08:33N 29°28' W 094°58'0 0.0
2014-Jul-25 07:33N 29°28' W 094°58'0 0.0
2014-Jul-25 06:33N 29°28' W 094°58'0 0.0
2014-Jul-25 05:33N 29°28' W 094°58'0 0.0
2014-Jul-25 04:33N 29°28' W 094°58'0 0.0
2014-Jul-25 03:32N 29°28' W 094°58'0 0.0
2014-Jul-25 02:33N 29°28' W 094°58'0 0.0
2014-Jul-25 01:33N 29°28' W 094°58'0 0.0
2014-Jul-25 00:33N 29°28' W 094°58'0 0.0
2014-Jul-24 23:33N 29°28' W 094°58'0 0.0
2014-Jul-24 22:29N 29°28' W 094°58'0 0.1
2014-Jul-24 21:33N 29°28' W 094°58'3 2.6
2014-Jul-24 20:33N 29°27' W 094°55'3 3.4
2014-Jul-24 19:33N 29°28' W 094°51'  

Dump ship's entire track history